Time;durP1;ratioP1;P1;durP2;ratioP2;P2;SDS_P1;SDS_P2;PMS_P1;PMS_P2;Temp;Humidity;BMP_temperature;BMP_pressure;BME280_temperature;BME280_humidity;BME280_pressure;Samples;Min_cycle;Max_cycle;Signal;HPM_P1;HPM_P2
2022/02/04 00:05:25;;;;;;;27.63;19.80;;;9.20;86.80;;;;;;5075361;28;20538;-33
2022/02/04 00:23:35;;;;;;;25.17;19.33;;;9.10;86.80;;;;;;5075258;28;20024;-32
2022/02/04 00:26:18;;;;;;;23.63;17.77;;;9.10;86.70;;;;;;5075242;28;20419;-31
2022/02/04 00:31:59;;;;;;;26.10;19.08;;;9.10;86.70;;;;;;5075291;28;20032;-31
2022/02/04 00:34:09;;;;;;;27.17;19.30;;;9.10;86.70;;;;;;5068988;28;20094;-31
2022/02/04 00:37:44;;;;;;;27.42;19.58;;;9.10;86.60;;;;;;5074853;28;20059;-31
2022/02/04 00:39:37;;;;;;;24.02;17.52;;;9.10;86.60;;;;;;5060533;28;20550;-31
2022/02/04 00:42:08;;;;;;;24.42;18.30;;;9.10;86.70;;;;;;5074711;28;20047;-31
2022/02/04 00:44:36;;;;;;;26.63;19.38;;;9.10;86.60;;;;;;5074553;28;20074;-33
2022/02/04 00:47:11;;;;;;;24.83;18.33;;;9.10;86.60;;;;;;5074545;28;20055;-32
2022/02/04 00:52:18;;;;;;;23.27;17.52;;;9.10;86.60;;;;;;5074798;28;20028;-33
2022/02/04 00:54:53;;;;;;;22.30;17.42;;;9.10;86.50;;;;;;5074304;28;20099;-31
2022/02/04 01:27:23;;;;;;;24.45;18.02;;;9.10;86.30;;;;;;5074006;28;20058;-34
2022/02/04 01:30:01;;;;;;;25.05;18.30;;;9.10;86.30;;;;;;5073345;28;20016;-30
2022/02/04 01:32:27;;;;;;;24.50;18.67;;;9.10;86.30;;;;;;5073770;28;20487;-34
2022/02/04 01:34:52;;;;;;;25.02;17.15;;;9.10;86.30;;;;;;5073986;28;20461;-32
2022/02/04 01:37:19;;;;;;;22.38;16.20;;;9.10;86.40;;;;;;5072513;28;20070;-32
2022/02/04 01:39:45;;;;;;;22.58;17.02;;;9.10;86.40;;;;;;5073623;28;20059;-33
2022/02/04 01:42:10;;;;;;;23.23;17.10;;;9.10;86.40;;;;;;5073346;28;20055;-31
2022/02/04 01:44:36;;;;;;;21.73;16.45;;;9.10;86.40;;;;;;5073450;28;20025;-31
2022/02/04 01:47:03;;;;;;;22.20;16.30;;;9.20;86.40;;;;;;5073586;28;20077;-32
2022/02/04 01:49:30;;;;;;;23.13;16.63;;;9.20;86.40;;;;;;5073338;28;20028;-32
2022/02/04 01:51:56;;;;;;;21.38;16.08;;;9.20;86.40;;;;;;5073288;28;20059;-36
2022/02/04 01:54:22;;;;;;;22.77;16.77;;;9.20;86.30;;;;;;5073349;28;20060;-36
2022/02/04 01:56:47;;;;;;;23.45;16.88;;;9.20;86.20;;;;;;5073426;28;20020;-32
2022/02/04 01:59:13;;;;;;;20.35;15.25;;;9.20;86.20;;;;;;5073301;28;20025;-34
2022/02/04 02:01:39;;;;;;;20.60;14.75;;;9.20;86.20;;;;;;5073184;28;20028;-33
2022/02/04 02:04:07;;;;;;;22.55;15.90;;;9.20;86.20;;;;;;5073229;28;20028;-32
2022/02/04 02:06:53;;;;;;;20.17;14.60;;;9.10;86.20;;;;;;5073431;28;20486;-31
2022/02/04 02:09:22;;;;;;;21.38;16.25;;;9.20;86.20;;;;;;5073270;28;20055;-31
2022/02/04 02:11:52;;;;;;;19.98;13.88;;;9.10;86.10;;;;;;5073384;28;20056;-32
2022/02/04 02:14:21;;;;;;;19.75;14.38;;;9.10;86.20;;;;;;5073050;28;20021;-31
2022/02/04 02:33:29;;;;;;;19.30;13.50;;;9.10;86.00;;;;;;5073044;28;20044;-31
2022/02/04 02:36:21;;;;;;;16.75;12.75;;;9.10;86.10;;;;;;5072644;28;20044;-32
2022/02/04 02:44:17;;;;;;;17.50;11.85;;;9.10;86.00;;;;;;5077248;28;20086;-35
2022/02/04 02:47:07;;;;;;;16.75;12.75;;;9.10;85.90;;;;;;5077094;28;20107;-32
2022/02/04 02:52:30;;;;;;;16.40;11.98;;;9.10;86.00;;;;;;5076755;28;20043;-32
2022/02/04 02:55:16;;;;;;;15.93;11.20;;;9.20;85.90;;;;;;5077000;28;20046;-33
2022/02/04 03:02:35;;;;;;;15.05;10.68;;;9.20;85.90;;;;;;5076748;28;20115;-36
2022/02/04 03:05:00;;;;;;;14.48;10.30;;;9.10;85.90;;;;;;5076480;28;20501;-34
2022/02/04 03:07:26;;;;;;;14.48;11.18;;;9.10;85.90;;;;;;5075141;28;20036;-32
2022/02/04 03:09:52;;;;;;;17.42;11.82;;;9.10;85.80;;;;;;5076632;28;20426;-33
2022/02/04 03:12:17;;;;;;;21.05;11.32;;;9.10;85.80;;;;;;5076368;28;20441;-31
2022/02/04 03:14:43;;;;;;;15.07;10.60;;;9.00;85.80;;;;;;5076245;28;20465;-32
2022/02/04 03:17:11;;;;;;;15.65;10.77;;;9.00;85.90;;;;;;5076175;28;20111;-31
2022/02/04 03:19:39;;;;;;;13.82;10.70;;;9.00;85.90;;;;;;5076187;28;20051;-32
2022/02/04 03:22:10;;;;;;;15.30;10.45;;;9.00;85.90;;;;;;5076324;28;20024;-31
2022/02/04 03:24:36;;;;;;;14.75;10.43;;;9.10;85.90;;;;;;5076335;28;20142;-31
2022/02/04 03:27:07;;;;;;;15.05;10.48;;;9.10;85.90;;;;;;5076300;28;20059;-33
2022/02/04 03:29:51;;;;;;;16.10;10.95;;;9.10;85.90;;;;;;5076076;28;20020;-32
2022/02/04 03:32:20;;;;;;;12.82;9.20;;;9.10;85.80;;;;;;5076140;28;20101;-32
2022/02/04 03:34:45;;;;;;;13.95;10.18;;;9.10;85.80;;;;;;5076114;28;20491;-32
2022/02/04 03:37:11;;;;;;;13.65;9.30;;;9.10;85.80;;;;;;5075806;28;20107;-33
2022/02/04 03:39:37;;;;;;;12.07;8.88;;;9.10;85.70;;;;;;5075905;28;20482;-32
2022/02/04 03:42:03;;;;;;;11.85;8.63;;;9.10;85.70;;;;;;5075835;28;20459;-35
2022/02/04 03:44:29;;;;;;;13.68;9.38;;;9.10;85.70;;;;;;5076046;28;20097;-34
2022/02/04 03:46:55;;;;;;;13.70;9.05;;;9.10;85.70;;;;;;5075647;28;20076;-34
2022/02/04 03:49:21;;;;;;;10.65;8.20;;;9.20;85.70;;;;;;5075722;28;20025;-39
2022/02/04 03:51:47;;;;;;;12.98;8.98;;;9.20;85.80;;;;;;5075594;28;20388;-35
2022/02/04 03:54:13;;;;;;;10.70;8.02;;;9.10;85.70;;;;;;5075626;28;20054;-33
2022/02/04 03:56:41;;;;;;;10.75;8.02;;;9.20;85.70;;;;;;5075643;28;20025;-32
2022/02/04 03:59:07;;;;;;;9.57;7.75;;;9.20;85.70;;;;;;5075440;28;20087;-36
2022/02/04 04:01:32;;;;;;;9.50;7.30;;;9.20;85.70;;;;;;5075432;28;20483;-34
2022/02/04 04:03:58;;;;;;;12.95;8.00;;;9.20;85.50;;;;;;5074143;28;20028;-34
2022/02/04 04:06:23;;;;;;;10.70;7.88;;;9.20;85.50;;;;;;5075251;28;20029;-32
2022/02/04 04:08:52;;;;;;;10.20;7.45;;;9.20;85.50;;;;;;5075198;28;20028;-33
2022/02/04 04:11:18;;;;;;;10.77;7.57;;;9.20;85.50;;;;;;5075421;28;20031;-32
2022/02/04 04:13:44;;;;;;;11.52;8.02;;;9.20;85.40;;;;;;5075262;28;20021;-33
2022/02/04 04:16:10;;;;;;;9.52;7.38;;;9.20;85.30;;;;;;5075106;28;20158;-30
2022/02/04 04:18:35;;;;;;;13.18;8.38;;;9.20;85.30;;;;;;5075358;28;20150;-32
2022/02/04 04:21:01;;;;;;;11.23;7.70;;;9.20;85.30;;;;;;5075132;28;20515;-32
2022/02/04 04:23:28;;;;;;;10.75;7.63;;;9.20;85.30;;;;;;5075336;28;20039;-31
2022/02/04 04:25:53;;;;;;;11.18;7.30;;;9.20;85.30;;;;;;5074945;28;20104;-31
2022/02/04 04:28:19;;;;;;;11.75;7.35;;;9.20;85.30;;;;;;5074997;28;20461;-34
2022/02/04 04:30:45;;;;;;;8.85;6.78;;;9.20;85.30;;;;;;5075069;28;20035;-32
2022/02/04 04:33:10;;;;;;;9.13;6.78;;;9.20;85.20;;;;;;5074774;28;20024;-32
2022/02/04 04:35:36;;;;;;;8.93;6.38;;;9.20;85.20;;;;;;5074928;28;20024;-31
2022/02/04 04:38:10;;;;;;;9.05;6.97;;;9.20;85.10;;;;;;5073421;28;20031;-31
2022/02/04 05:29:09;;;;;;;7.63;5.97;;;9.10;84.80;;;;;;5074077;28;20111;-35
2022/02/04 05:31:35;;;;;;;7.75;5.60;;;9.10;84.90;;;;;;5073855;28;20085;-35
2022/02/04 05:34:00;;;;;;;9.35;5.93;;;9.10;84.80;;;;;;5073895;28;20377;-32
2022/02/04 05:36:26;;;;;;;8.30;5.72;;;9.10;84.70;;;;;;5073379;28;20082;-31
2022/02/04 05:38:54;;;;;;;7.40;5.35;;;9.00;84.60;;;;;;5073706;28;20031;-34
2022/02/04 05:41:27;;;;;;;7.43;5.30;;;9.10;84.70;;;;;;5073726;28;20530;-33
2022/02/04 05:43:54;;;;;;;9.45;5.88;;;9.10;84.70;;;;;;5073646;28;20075;-33
2022/02/04 05:46:26;;;;;;;8.90;5.30;;;9.10;84.70;;;;;;5073424;28;20099;-32
2022/02/04 05:48:54;;;;;;;6.43;4.90;;;9.10;84.60;;;;;;5073360;28;20032;-33
2022/02/04 05:51:46;;;;;;;7.68;5.07;;;9.10;84.70;;;;;;5073644;28;20035;-33
2022/02/04 05:57:13;;;;;;;6.40;4.97;;;9.10;84.60;;;;;;5073238;28;20089;-31
2022/02/04 06:00:07;;;;;;;;;;;9.10;84.60;;;;;;5073713;28;20024;-32
2022/02/04 06:03:13;;;;;;;5.38;4.18;;;9.00;84.40;;;;;;5073162;28;20009;-34
2022/02/04 06:05:38;;;;;;;5.63;4.50;;;9.00;84.50;;;;;;5070951;28;20065;-32
2022/02/04 06:24:03;;;;;;;6.47;4.20;;;9.00;84.50;;;;;;5073227;28;20052;-32
2022/02/04 06:26:29;;;;;;;6.43;3.97;;;9.00;84.40;;;;;;5073179;28;20033;-32
2022/02/04 06:28:55;;;;;;;8.02;3.92;;;9.00;84.50;;;;;;5072923;28;20036;-33
2022/02/04 06:31:22;;;;;;;5.80;3.92;;;9.00;84.40;;;;;;5073326;28;20380;-33
2022/02/04 06:33:48;;;;;;;6.70;4.10;;;9.00;84.70;;;;;;5072805;28;20025;-32
2022/02/04 06:36:13;;;;;;;6.30;4.50;;;9.10;84.50;;;;;;5071475;28;20035;-33
2022/02/04 06:38:39;;;;;;;7.32;4.57;;;9.10;84.30;;;;;;5072987;28;20025;-32
2022/02/04 06:41:04;;;;;;;5.03;4.00;;;9.10;84.40;;;;;;5072731;28;20391;-31
2022/02/04 06:43:31;;;;;;;6.15;4.05;;;9.10;84.30;;;;;;5072611;28;20586;-34
2022/02/04 06:45:57;;;;;;;5.32;4.00;;;9.10;84.30;;;;;;5072643;28;20048;-32
2022/02/04 06:48:22;;;;;;;4.18;3.28;;;9.00;84.30;;;;;;5072847;28;20070;-33
2022/02/04 06:54:10;;;;;;;4.38;3.42;;;9.00;84.10;;;;;;5072932;28;20044;-33
2022/02/04 06:56:36;;;;;;;5.28;3.67;;;9.10;84.10;;;;;;5072656;28;20025;-32
2022/02/04 06:59:04;;;;;;;4.95;3.45;;;9.10;84.10;;;;;;5072751;28;20393;-31
2022/02/04 07:01:31;;;;;;;5.18;3.40;;;9.00;84.10;;;;;;5072398;28;20051;-32
2022/02/04 07:03:57;;;;;;;5.13;3.75;;;9.10;84.20;;;;;;5072574;28;20154;-32
2022/02/04 07:06:22;;;;;;;5.80;3.63;;;9.10;84.20;;;;;;5072578;28;20536;-31
2022/02/04 07:14:12;;;;;;;5.60;3.67;;;9.10;84.10;;;;;;5072351;28;20134;-32
2022/02/04 07:16:54;;;;;;;4.03;3.28;;;9.10;84.10;;;;;;5072245;28;20025;-31
2022/02/04 07:22:26;;;;;;;4.30;3.30;;;9.20;84.10;;;;;;5030191;28;20079;-31
2022/02/04 07:24:56;;;;;;;5.03;3.45;;;9.10;84.00;;;;;;5030179;28;20029;-31
2022/02/04 07:27:21;;;;;;;4.22;3.53;;;9.10;84.00;;;;;;5052052;28;20035;-31
2022/02/04 07:29:50;;;;;;;4.30;3.28;;;9.20;84.10;;;;;;5076000;28;20384;-33
2022/02/04 07:32:29;;;;;;;4.63;3.22;;;9.20;84.10;;;;;;5075716;28;20108;-32
2022/02/04 07:42:54;;;;;;;4.22;3.65;;;9.30;84.10;;;;;;5075681;28;20060;-31
2022/02/04 07:45:21;;;;;;;5.15;3.70;;;9.30;84.10;;;;;;5075716;28;20024;-31
2022/02/04 07:47:48;;;;;;;3.95;3.55;;;9.30;84.10;;;;;;5075464;28;20111;-34
2022/02/04 07:50:14;;;;;;;3.50;3.00;;;9.30;84.10;;;;;;5075556;28;20434;-33
2022/02/04 07:52:39;;;;;;;4.88;3.20;;;9.30;84.10;;;;;;5075380;28;20025;-32
2022/02/04 07:55:05;;;;;;;4.28;3.17;;;9.30;84.70;;;;;;5075637;28;20469;-33
2022/02/04 07:57:33;;;;;;;4.55;3.42;;;9.30;84.10;;;;;;5075359;28;20021;-31
2022/02/04 08:00:03;;;;;;;4.47;3.35;;;9.20;84.00;;;;;;5075601;28;20024;-34
2022/02/04 08:02:28;;;;;;;4.70;3.55;;;9.20;84.10;;;;;;5075501;28;20081;-31
2022/02/04 08:04:59;;;;;;;3.88;2.85;;;9.20;84.10;;;;;;5075465;28;20421;-31
2022/02/04 08:07:29;;;;;;;3.67;3.20;;;9.20;84.30;;;;;;5075364;28;20510;-36
2022/02/04 08:20:27;;;;;;;4.38;3.63;;;9.20;84.50;;;;;;5075258;28;20027;-33
2022/02/04 08:25:36;;;;;;;5.07;3.70;;;9.20;84.50;;;;;;5075026;28;20024;-33
2022/02/04 08:28:30;;;;;;;6.43;4.05;;;9.20;84.60;;;;;;5074939;28;20536;-31
2022/02/04 08:36:30;;;;;;;5.10;3.95;;;9.20;84.70;;;;;;5074741;28;20073;-34
2022/02/04 08:52:28;;;;;;;5.18;4.53;;;9.20;84.90;;;;;;5074711;28;20048;-33
2022/02/04 08:55:10;;;;;;;5.60;3.78;;;9.20;85.00;;;;;;5074471;28;20023;-34
2022/02/04 08:57:42;;;;;;;6.38;4.60;;;9.20;85.10;;;;;;5074390;28;20036;-33
2022/02/04 09:02:41;;;;;;;5.05;4.20;;;9.20;85.10;;;;;;5074471;28;20035;-33
2022/02/04 09:05:12;;;;;;;5.13;4.03;;;9.20;85.10;;;;;;5074227;28;20423;-37
2022/02/04 09:10:14;;;;;;;5.88;4.25;;;9.30;85.10;;;;;;5074211;28;20051;-30
2022/02/04 09:22:55;;;;;;;4.78;4.25;;;9.40;84.80;;;;;;5074005;28;20028;-34
2022/02/04 09:25:21;;;;;;;5.03;4.47;;;9.40;84.80;;;;;;5073593;28;20047;-38
2022/02/04 09:27:47;;;;;;;5.20;4.47;;;9.50;84.90;;;;;;5073598;28;20078;-31
2022/02/04 09:30:15;;;;;;;5.45;4.38;;;9.50;84.80;;;;;;5073908;28;20024;-32
2022/02/04 09:32:41;;;;;;;5.68;4.53;;;9.50;84.80;;;;;;5073439;28;20475;-35
2022/02/04 09:35:10;;;;;;;5.70;4.35;;;9.50;84.80;;;;;;5073358;28;20349;-32
2022/02/04 09:37:36;;;;;;;5.75;4.90;;;9.60;84.90;;;;;;5072105;28;20028;-33
2022/02/04 09:40:04;;;;;;;6.68;4.50;;;9.60;85.00;;;;;;5073547;28;20024;-32
2022/02/04 09:42:31;;;;;;;5.00;4.15;;;9.60;85.10;;;;;;5073149;28;20489;-32
2022/02/04 09:44:57;;;;;;;4.43;4.03;;;9.60;85.30;;;;;;5073233;28;20028;-32
2022/02/04 09:47:25;;;;;;;5.00;4.45;;;9.60;85.40;;;;;;5073303;28;20020;-33
2022/02/04 09:49:57;;;;;;;4.40;3.97;;;9.60;85.50;;;;;;5073352;28;20021;-32
2022/02/04 10:19:38;;;;;;;4.55;4.15;;;9.70;85.80;;;;;;5073247;28;20028;-32
2022/02/04 10:22:04;;;;;;;4.68;4.10;;;9.70;85.80;;;;;;5071665;28;20016;-33
2022/02/04 10:24:31;;;;;;;4.30;3.90;;;9.70;85.80;;;;;;5072945;28;20416;-34
2022/02/04 10:27:18;;;;;;;4.38;3.97;;;9.80;85.80;;;;;;5072736;28;20392;-34
2022/02/04 10:29:53;;;;;;;4.28;3.83;;;9.80;85.80;;;;;;5073157;28;20480;-32
2022/02/04 10:32:31;;;;;;;4.18;3.78;;;9.80;85.50;;;;;;5072765;28;20388;-32
2022/02/04 10:35:05;;;;;;;4.10;3.63;;;9.90;85.50;;;;;;5072740;28;20515;-32
2022/02/04 10:37:33;;;;;;;4.47;3.15;;;9.90;85.50;;;;;;5072602;28;20031;-34
2022/02/04 10:40:12;;;;;;;3.10;2.78;;;9.90;85.40;;;;;;5073002;28;20373;-39
2022/02/04 10:45:37;;;;;;;3.20;2.90;;;10.00;85.20;;;;;;5073000;28;20070;-33
2022/02/04 10:48:16;;;;;;;3.17;2.88;;;9.90;85.20;;;;;;5071348;28;20024;-33
2022/02/04 11:03:25;;;;;;;4.68;3.00;;;9.90;85.50;;;;;;5074835;28;20390;-33
2022/02/04 11:06:00;;;;;;;3.10;2.70;;;9.90;85.30;;;;;;5076348;28;20021;-33
2022/02/04 11:36:26;;;;;;;3.25;2.60;;;10.10;84.30;;;;;;5075944;28;20510;-33
2022/02/04 11:57:18;;;;;;;3.13;2.83;;;10.50;83.00;;;;;;5075634;28;20032;-33
2022/02/04 11:59:58;;;;;;;3.10;2.80;;;10.50;82.70;;;;;;5071142;28;20048;-33
2022/02/04 12:02:26;;;;;;;4.63;3.13;;;10.50;82.80;;;;;;5075377;28;20028;-34
2022/02/04 12:05:15;;;;;;;2.80;2.50;;;10.60;82.70;;;;;;5075622;28;20032;-33
2022/02/04 12:07:44;;;;;;;3.28;2.60;;;10.60;82.30;;;;;;5075410;28;20357;-33
2022/02/04 12:10:13;;;;;;;3.67;2.30;;;10.50;82.20;;;;;;5075196;28;20385;-34
2022/02/04 12:12:54;;;;;;;2.50;2.30;;;10.50;82.40;;;;;;5075423;28;20067;-34
2022/02/04 12:15:31;;;;;;;4.68;3.20;;;10.50;82.40;;;;;;5075150;28;20381;-34
2022/02/04 12:18:03;;;;;;;3.08;2.20;;;10.50;82.00;;;;;;5075054;28;20081;-34
2022/02/04 12:20:44;;;;;;;2.97;2.58;;;10.50;81.90;;;;;;5075269;28;20457;-32
2022/02/04 12:23:25;;;;;;;2.83;2.38;;;10.50;81.90;;;;;;5075107;28;20020;-34
2022/02/04 12:26:08;;;;;;;3.47;2.38;;;10.50;81.80;;;;;;5074958;28;20028;-32
2022/02/04 12:28:41;;;;;;;2.50;2.30;;;10.40;81.60;;;;;;5075055;28;20028;-33
2022/02/04 12:31:14;;;;;;;3.33;2.40;;;10.40;81.80;;;;;;5074827;28;20078;-34
2022/02/04 12:33:49;;;;;;;3.55;2.50;;;10.40;81.70;;;;;;5074789;28;20028;-32
2022/02/04 12:36:23;;;;;;;2.95;2.33;;;10.50;81.50;;;;;;5074573;28;20078;-35
2022/02/04 12:38:52;;;;;;;4.30;2.60;;;10.50;81.50;;;;;;5074916;28;20499;-31
2022/02/04 12:41:20;;;;;;;2.95;2.58;;;10.40;80.70;;;;;;5074836;28;20017;-33
2022/02/04 12:43:51;;;;;;;2.65;2.30;;;10.40;81.00;;;;;;5074599;28;20041;-33
2022/02/04 12:46:18;;;;;;;2.63;2.30;;;10.40;81.10;;;;;;5074603;28;20107;-33
2022/02/04 12:49:04;;;;;;;3.63;2.55;;;10.40;81.20;;;;;;5074520;28;20081;-35
2022/02/04 12:51:55;;;;;;;3.08;2.35;;;10.40;81.20;;;;;;5072914;28;20068;-32
2022/02/04 12:54:47;;;;;;;3.15;2.78;;;10.30;81.20;;;;;;5074322;28;20365;-38
2022/02/04 13:10:28;;;;;;;2.60;2.28;;;10.20;81.20;;;;;;5074378;28;20499;-38
2022/02/04 13:13:00;;;;;;;3.55;2.85;;;10.20;81.10;;;;;;5074015;28;20119;-36
2022/02/04 13:15:28;;;;;;;3.17;2.85;;;10.20;80.90;;;;;;5074297;28;20013;-36
2022/02/04 13:17:56;;;;;;;3.28;2.60;;;10.10;80.80;;;;;;5074170;28;20030;-33
2022/02/04 13:20:22;;;;;;;3.45;2.60;;;10.20;80.90;;;;;;5074140;28;20025;-31
2022/02/04 13:22:50;;;;;;;4.35;2.75;;;10.10;80.60;;;;;;5073749;28;20044;-31
2022/02/04 13:25:18;;;;;;;2.58;2.10;;;10.10;80.90;;;;;;5073158;28;20028;-33
2022/02/04 13:28:11;;;;;;;2.55;2.30;;;10.10;80.60;;;;;;5073733;28;20554;-32
2022/02/04 13:30:41;;;;;;;3.08;2.60;;;10.10;80.50;;;;;;5073794;28;20040;-32
2022/02/04 13:33:18;;;;;;;3.08;2.60;;;10.10;80.40;;;;;;5073797;28;20480;-38
2022/02/04 13:35:52;;;;;;;4.70;2.22;;;10.10;80.60;;;;;;5073752;28;20025;-33
2022/02/04 13:38:32;;;;;;;3.20;2.50;;;10.10;80.80;;;;;;5073331;28;20031;-34
2022/02/04 13:46:11;;;;;;;2.85;2.20;;;10.00;81.10;;;;;;5073690;28;20028;-35
2022/02/04 13:48:57;;;;;;;5.78;2.70;;;10.00;81.30;;;;;;5073252;28;20430;-34
2022/02/04 13:51:41;;;;;;;5.18;2.80;;;9.90;81.10;;;;;;5073104;28;20027;-33
2022/02/04 13:54:38;;;;;;;3.92;3.00;;;9.90;81.40;;;;;;5073205;28;20032;-34
2022/02/04 14:00:38;;;;;;;3.55;3.13;;;9.80;82.00;;;;;;5073011;28;20127;-34
2022/02/04 14:03:13;;;;;;;3.80;2.88;;;9.70;82.40;;;;;;5073105;28;20090;-33
2022/02/04 14:05:48;;;;;;;4.50;3.20;;;9.60;82.70;;;;;;5073309;28;20035;-31
2022/02/04 14:08:19;;;;;;;4.50;3.08;;;9.50;83.10;;;;;;5071776;28;20401;-31
2022/02/04 14:10:55;;;;;;;4.07;3.28;;;9.50;83.50;;;;;;5073070;28;20025;-31
2022/02/04 14:13:23;;;;;;;5.15;4.10;;;9.40;83.90;;;;;;5072942;28;20021;-34
2022/02/04 14:15:52;;;;;;;5.47;3.90;;;9.40;84.20;;;;;;5072812;28;20025;-32
2022/02/04 14:18:17;;;;;;;5.82;4.25;;;9.30;84.40;;;;;;5071726;28;20020;-32
2022/02/04 14:20:44;;;;;;;6.82;3.28;;;9.30;84.70;;;;;;5073071;28;20070;-33
2022/02/04 14:23:11;;;;;;;5.53;3.60;;;9.30;84.80;;;;;;5073125;28;20017;-32
2022/02/04 14:25:56;;;;;;;5.50;3.88;;;9.20;84.90;;;;;;5072869;28;20024;-31
2022/02/04 14:28:31;;;;;;;4.35;3.70;;;9.20;85.20;;;;;;5073115;28;20103;-33
2022/02/04 14:31:07;;;;;;;4.85;3.67;;;9.10;85.40;;;;;;5073101;28;20016;-35
2022/02/04 14:36:28;;;;;;;4.43;3.50;;;9.10;85.80;;;;;;5072857;28;20046;-31
2022/02/04 15:05:12;;;;;;;0.43;0.43;;;7.50;86.10;;;;;;5076178;28;20028;-30
2022/02/04 15:07:40;;;;;;;2.60;0.40;;;7.20;86.70;;;;;;5076314;28;20036;-32
2022/02/04 15:10:12;;;;;;;0.30;0.30;;;7.00;87.20;;;;;;5076264;28;20078;-38
2022/02/04 15:12:38;;;;;;;0.40;0.35;;;6.70;87.10;;;;;;5076479;28;20032;-31
2022/02/04 15:15:04;;;;;;;0.43;0.30;;;6.40;87.60;;;;;;5076478;28;20020;-29
2022/02/04 15:17:30;;;;;;;0.20;0.15;;;6.10;87.90;;;;;;5076144;28;20028;-32
2022/02/04 15:19:56;;;;;;;3.30;0.60;;;5.90;88.40;;;;;;5076039;28;20100;-30
2022/02/04 15:22:25;;;;;;;0.68;0.40;;;5.70;88.40;;;;;;5076083;28;20067;-30
2022/02/04 15:24:55;;;;;;;0.20;0.20;;;5.50;89.00;;;;;;5074737;28;20020;-32
2022/02/04 15:27:21;;;;;;;0.40;0.40;;;5.30;89.10;;;;;;5075959;28;20488;-30
2022/02/04 15:29:49;;;;;;;0.43;0.20;;;5.20;89.60;;;;;;5076010;28;20023;-30
2022/02/04 15:32:15;;;;;;;0.30;0.30;;;5.10;89.90;;;;;;5076042;28;20090;-31
2022/02/04 15:34:40;;;;;;;0.20;0.20;;;5.00;90.10;;;;;;5075978;28;20024;-32
2022/02/04 15:37:07;;;;;;;0.40;0.40;;;5.00;90.30;;;;;;5074452;28;20554;-30
2022/02/04 15:39:34;;;;;;;1.10;0.30;;;5.00;90.20;;;;;;5076078;28;20021;-29
2022/02/04 15:42:06;;;;;;;0.65;0.20;;;5.00;90.20;;;;;;5075720;28;20109;-32
2022/02/04 15:54:43;;;;;;;0.65;0.65;;;5.10;90.40;;;;;;5075711;28;20028;-34
2022/02/04 16:04:56;;;;;;;1.00;0.90;;;5.10;90.60;;;;;;5075646;28;20158;-29
2022/02/04 16:07:24;;;;;;;1.88;1.10;;;5.10;90.60;;;;;;5075563;28;20024;-31
2022/02/04 16:09:58;;;;;;;0.82;0.82;;;5.10;90.80;;;;;;5075470;28;20100;-33
2022/02/04 16:12:29;;;;;;;2.25;1.75;;;5.20;90.80;;;;;;5073839;28;20024;-31
2022/02/04 16:15:03;;;;;;;2.33;1.30;;;5.20;90.70;;;;;;5075429;28;20412;-33
2022/02/04 16:17:33;;;;;;;1.10;1.00;;;5.20;90.80;;;;;;5075032;28;20026;-37
2022/02/04 16:30:43;;;;;;;0.93;0.80;;;5.20;90.80;;;;;;5074868;28;20035;-30
2022/02/04 16:33:08;;;;;;;1.75;0.65;;;5.20;90.80;;;;;;5074690;28;20052;-30
2022/02/04 16:35:34;;;;;;;1.23;1.20;;;5.10;90.80;;;;;;5074819;28;20028;-31
2022/02/04 16:38:04;;;;;;;1.13;0.90;;;5.20;90.80;;;;;;5074636;28;20025;-35
2022/02/04 16:40:34;;;;;;;1.15;0.68;;;5.10;90.80;;;;;;5074926;28;20081;-34
2022/02/04 16:43:02;;;;;;;1.40;1.30;;;5.10;90.80;;;;;;5074485;28;20047;-31
2022/02/04 16:45:28;;;;;;;0.68;0.68;;;5.10;90.80;;;;;;5074454;28;20021;-33
2022/02/04 16:47:56;;;;;;;1.08;0.77;;;5.10;90.80;;;;;;5074791;28;20495;-29
2022/02/04 16:50:23;;;;;;;0.95;0.60;;;5.10;90.80;;;;;;5074479;28;20028;-29
2022/02/04 16:52:50;;;;;;;1.30;1.13;;;5.10;90.80;;;;;;5074451;28;20025;-29
2022/02/04 16:55:17;;;;;;;0.90;0.90;;;5.10;90.70;;;;;;5074349;28;20028;-30
2022/02/04 16:57:43;;;;;;;1.55;1.20;;;5.00;90.70;;;;;;5074222;28;20051;-30
2022/02/04 17:00:20;;;;;;;1.67;1.02;;;5.00;90.70;;;;;;5073383;28;20025;-34
2022/02/04 17:02:47;;;;;;;3.28;1.00;;;5.00;90.70;;;;;;5074543;28;20050;-34
2022/02/04 17:05:13;;;;;;;1.42;1.10;;;5.00;90.80;;;;;;5074132;28;20495;-31
2022/02/04 17:07:39;;;;;;;4.28;1.30;;;5.00;90.80;;;;;;5074391;28;20029;-29
2022/02/04 17:10:08;;;;;;;4.53;2.67;;;5.10;90.80;;;;;;5074026;28;20103;-32
2022/02/04 17:12:41;;;;;;;3.33;1.50;;;5.10;90.70;;;;;;5074166;28;20025;-33
2022/02/04 17:15:08;;;;;;;2.00;1.17;;;5.00;90.70;;;;;;5074152;28;20523;-31
2022/02/04 17:17:34;;;;;;;1.67;0.90;;;5.00;90.60;;;;;;5074001;28;20081;-31
2022/02/04 17:20:13;;;;;;;3.17;1.02;;;5.00;90.70;;;;;;5073857;28;20107;-30
2022/02/04 17:22:39;;;;;;;3.22;1.25;;;5.00;90.70;;;;;;5073763;28;20017;-30
2022/02/04 17:25:11;;;;;;;2.78;1.23;;;5.00;90.70;;;;;;5072472;28;20025;-30
2022/02/04 17:27:41;;;;;;;1.85;1.30;;;4.90;90.70;;;;;;5072781;28;20051;-30
2022/02/04 17:30:10;;;;;;;1.63;1.40;;;4.90;90.70;;;;;;5073776;28;20144;-30
2022/02/04 17:32:39;;;;;;;2.78;1.60;;;4.90;90.80;;;;;;5073588;28;20020;-30
2022/02/04 17:35:06;;;;;;;2.97;1.50;;;4.90;90.70;;;;;;5072376;28;20024;-30
2022/02/04 17:37:31;;;;;;;3.40;1.80;;;4.90;90.70;;;;;;5073450;28;20048;-31
2022/02/04 17:39:58;;;;;;;2.53;1.45;;;4.90;90.70;;;;;;5073566;28;20441;-30
2022/02/04 17:42:26;;;;;;;3.17;1.67;;;4.90;90.70;;;;;;5073153;28;20082;-31
2022/02/04 17:44:52;;;;;;;4.60;2.00;;;4.80;90.60;;;;;;5073322;28;20070;-33
2022/02/04 17:47:24;;;;;;;2.70;1.80;;;4.80;90.70;;;;;;5073584;28;20074;-33
2022/02/04 17:50:17;;;;;;;3.65;1.80;;;4.70;90.70;;;;;;5073637;28;20033;-32
2022/02/04 17:52:44;;;;;;;3.85;2.10;;;4.70;90.70;;;;;;5072832;28;20063;-32
2022/02/04 17:55:17;;;;;;;3.05;2.33;;;4.70;90.70;;;;;;5073534;28;20445;-35
2022/02/04 17:57:49;;;;;;;;;;;4.80;90.70;;;;;;5073785;28;20036;-35
2022/02/04 18:03:13;;;;;;;2.70;1.90;;;4.70;90.70;;;;;;5073337;28;20039;-29
2022/02/04 18:06:32;;;;;;;3.10;2.05;;;4.70;90.70;;;;;;5073005;28;20117;-32
2022/02/04 18:08:29;;;;;;;2.90;1.45;;;4.70;90.60;;;;;;5067311;28;20024;-31
2022/02/04 18:10:55;;;;;;;6.13;1.85;;;4.70;90.60;;;;;;5072834;28;20039;-30
2022/02/04 18:13:22;;;;;;;4.18;2.10;;;4.70;90.60;;;;;;5071460;28;20033;-33
2022/02/04 18:15:47;;;;;;;4.50;1.80;;;4.70;90.60;;;;;;5072831;28;20427;-32
2022/02/04 18:18:15;;;;;;;3.65;1.70;;;4.70;90.70;;;;;;5073004;28;20017;-32
2022/02/04 18:20:41;;;;;;;4.47;1.90;;;4.70;90.70;;;;;;5072900;28;20481;-30
2022/02/04 18:23:07;;;;;;;4.88;1.75;;;4.80;90.70;;;;;;5072930;28;20042;-32
2022/02/04 18:25:33;;;;;;;7.32;2.22;;;4.80;90.70;;;;;;5072744;28;20024;-33
2022/02/04 18:28:00;;;;;;;6.22;2.20;;;4.80;90.70;;;;;;5072669;28;20031;-30
2022/02/04 18:30:29;;;;;;;8.15;2.20;;;4.80;90.70;;;;;;5072828;28;20040;-31
2022/02/04 18:32:55;;;;;;;4.90;2.05;;;4.90;90.60;;;;;;5071253;28;20086;-32
2022/02/04 18:35:21;;;;;;;7.72;1.98;;;4.90;90.60;;;;;;5071430;28;20492;-31
2022/02/04 18:38:02;;;;;;;5.40;1.60;;;4.90;90.60;;;;;;5072988;28;20023;-33
2022/02/04 18:46:02;;;;;;;5.80;2.00;;;4.80;90.50;;;;;;5072658;28;20515;-35
2022/02/04 18:48:34;;;;;;;7.55;2.10;;;4.80;90.50;;;;;;5072818;28;20044;-30
2022/02/04 18:51:20;;;;;;;8.43;2.50;;;4.80;90.60;;;;;;5072893;28;20476;-30
2022/02/04 18:53:57;;;;;;;10.25;2.53;;;4.90;90.90;;;;;;5072633;28;20107;-31
2022/02/04 18:56:54;;;;;;;8.85;2.38;;;4.90;90.50;;;;;;5072560;28;20033;-31
2022/02/04 18:59:17;;;;;;;9.55;2.55;;;4.90;90.40;;;;;;5072460;28;20437;-34
2022/02/04 19:01:43;;;;;;;8.55;2.80;;;4.90;90.40;;;;;;5072901;28;20100;-31
2022/02/04 19:04:14;;;;;;;9.05;2.40;;;4.90;90.30;;;;;;5072751;28;20496;-35
2022/02/04 19:06:45;;;;;;;8.90;2.70;;;4.90;90.20;;;;;;5072633;28;20025;-32
2022/02/04 19:09:10;;;;;;;8.32;3.20;;;4.90;90.20;;;;;;5072347;28;20050;-31
2022/02/04 19:11:42;;;;;;;7.20;3.35;;;4.90;90.30;;;;;;5072416;28;20486;-33
2022/02/04 19:14:14;;;;;;;5.80;3.05;;;4.90;90.30;;;;;;5072386;28;20098;-33
2022/02/04 19:19:30;;;;;;;8.35;2.90;;;5.00;90.30;;;;;;5072752;28;20033;-31
2022/02/04 19:22:41;;;;;;;6.65;2.83;;;5.00;90.30;;;;;;5072511;28;20029;-32
2022/02/04 19:24:46;;;;;;;11.20;5.03;;;5.10;90.30;;;;;;5069502;28;20166;-31
2022/02/04 19:27:12;;;;;;;7.72;3.17;;;5.10;90.20;;;;;;5076090;28;20040;-31
2022/02/04 19:29:44;;;;;;;6.90;3.50;;;5.00;90.20;;;;;;5074744;28;20484;-31
2022/02/04 19:32:11;;;;;;;9.15;3.80;;;5.10;90.30;;;;;;5076211;28;20107;-33
2022/02/04 19:34:38;;;;;;;5.55;2.55;;;5.10;90.30;;;;;;5076192;28;20043;-33
2022/02/04 19:37:03;;;;;;;8.73;2.83;;;5.10;90.30;;;;;;5075775;28;20511;-31
2022/02/04 19:39:29;;;;;;;7.50;3.20;;;5.10;90.30;;;;;;5075874;28;20033;-30
2022/02/04 19:42:05;;;;;;;8.15;3.22;;;5.10;90.30;;;;;;5075867;28;20051;-32
2022/02/04 19:44:33;;;;;;;9.40;3.45;;;5.10;90.30;;;;;;5075754;28;20020;-33
2022/02/04 19:47:03;;;;;;;11.35;4.28;;;5.10;90.30;;;;;;5075775;28;20431;-35
2022/02/04 19:49:44;;;;;;;9.57;3.58;;;5.10;90.30;;;;;;5076005;28;20032;-34